Time;durP1;ratioP1;P1;durP2;ratioP2;P2;SDS_P1;SDS_P2;PMS_P1;PMS_P2;Temp;Humidity;BMP_temperature;BMP_pressure;BME280_temperature;BME280_humidity;BME280_pressure;Samples;Min_cycle;Max_cycle;Signal;HPM_P1;HPM_P2
2023/05/16 00:00:09;;;;;;;17.88;3.75;;;10.10;99.90;;;;;;5098056;28;20470;-64
2023/05/16 00:02:36;;;;;;;15.82;3.40;;;10.10;99.90;;;;;;5095283;28;20442;-63
2023/05/16 00:05:03;;;;;;;13.45;3.13;;;10.10;99.90;;;;;;5095154;28;20071;-63
2023/05/16 00:07:30;;;;;;;16.10;4.05;;;10.00;99.90;;;;;;5095021;28;20044;-63
2023/05/16 00:09:55;;;;;;;15.25;3.03;;;10.00;99.90;;;;;;5098506;28;20052;-63
2023/05/16 00:12:21;;;;;;;15.70;3.28;;;10.00;99.90;;;;;;5095154;28;20058;-63
2023/05/16 00:14:49;;;;;;;13.88;3.35;;;10.00;99.90;;;;;;5103118;28;20039;-63
2023/05/16 00:17:16;;;;;;;14.90;2.90;;;9.90;99.90;;;;;;5094432;28;20107;-63
2023/05/16 00:19:43;;;;;;;15.57;3.22;;;9.90;99.90;;;;;;5099558;28;20036;-63
2023/05/16 00:22:10;;;;;;;15.57;3.00;;;9.80;99.90;;;;;;5094626;28;20036;-63
2023/05/16 00:24:36;;;;;;;11.20;2.70;;;9.80;99.90;;;;;;5076624;28;20123;-63
2023/05/16 00:27:02;;;;;;;16.08;3.05;;;9.80;99.90;;;;;;5095903;28;20072;-63
2023/05/16 00:29:30;;;;;;;12.70;3.25;;;9.70;99.90;;;;;;5093883;28;20044;-63
2023/05/16 00:31:55;;;;;;;13.18;3.25;;;9.70;99.90;;;;;;5094629;28;20036;-63
2023/05/16 00:34:21;;;;;;;11.27;2.65;;;9.70;99.90;;;;;;5078422;28;20112;-62
2023/05/16 00:36:48;;;;;;;17.23;3.22;;;9.60;99.90;;;;;;5101735;28;20592;-63
2023/05/16 00:39:14;;;;;;;14.50;3.22;;;9.60;99.90;;;;;;5093993;28;20054;-63
2023/05/16 00:41:40;;;;;;;13.63;2.60;;;9.60;99.90;;;;;;5096001;28;20112;-63
2023/05/16 00:44:05;;;;;;;15.55;3.05;;;9.60;99.90;;;;;;5100717;28;20129;-63
2023/05/16 00:46:31;;;;;;;15.82;3.20;;;9.50;99.90;;;;;;5106925;28;20040;-63
2023/05/16 00:48:57;;;;;;;18.35;3.10;;;9.50;99.90;;;;;;5093968;28;20114;-63
2023/05/16 00:51:23;;;;;;;12.00;2.45;;;9.50;99.90;;;;;;5095086;28;20067;-63
2023/05/16 00:53:49;;;;;;;17.70;3.38;;;9.40;99.90;;;;;;5093119;28;20401;-63
2023/05/16 00:56:16;;;;;;;19.42;2.72;;;9.40;99.90;;;;;;5102093;28;20032;-63
2023/05/16 00:58:42;;;;;;;15.05;2.60;;;9.40;99.90;;;;;;5094068;28;20036;-62
2023/05/16 01:01:07;;;;;;;19.95;2.50;;;9.40;99.90;;;;;;5091695;28;20090;-62
2023/05/16 01:03:34;;;;;;;13.63;2.58;;;9.40;99.90;;;;;;5093443;28;20096;-62
2023/05/16 01:05:59;;;;;;;13.95;2.90;;;9.30;99.90;;;;;;5102349;28;20498;-62
2023/05/16 01:08:25;;;;;;;12.73;2.55;;;9.30;99.90;;;;;;5090322;28;20043;-62
2023/05/16 01:11:03;;;;;;;15.95;2.88;;;9.30;99.90;;;;;;5076815;28;20067;-62
2023/05/16 01:13:43;;;;;;;13.65;2.55;;;9.30;99.90;;;;;;5091163;28;20076;-63
2023/05/16 01:16:18;;;;;;;15.17;3.20;;;9.30;99.90;;;;;;5090767;28;20456;-62
2023/05/16 01:19:01;;;;;;;13.68;2.72;;;9.30;99.90;;;;;;5096253;28;20040;-62
2023/05/16 01:21:48;;;;;;;14.85;2.97;;;9.20;99.90;;;;;;5080054;28;20044;-62
2023/05/16 01:24:31;;;;;;;13.40;2.60;;;9.20;99.90;;;;;;5098359;28;20662;-62
2023/05/16 01:26:58;;;;;;;12.88;2.38;;;9.10;99.90;;;;;;5096195;28;20047;-62
2023/05/16 01:29:24;;;;;;;14.88;2.75;;;9.20;99.90;;;;;;5097508;28;20039;-63
2023/05/16 01:31:50;;;;;;;15.52;2.78;;;9.10;99.90;;;;;;5093620;28;20081;-62
2023/05/16 01:34:16;;;;;;;16.23;2.83;;;9.10;99.90;;;;;;5093887;28;20036;-62
2023/05/16 01:37:10;;;;;;;13.35;3.00;;;9.10;99.90;;;;;;5096521;28;20383;-62
2023/05/16 01:39:54;;;;;;;19.77;2.53;;;9.10;99.90;;;;;;5087667;28;20465;-62
2023/05/16 01:42:26;;;;;;;14.10;2.78;;;9.00;99.90;;;;;;5091066;28;20437;-62
2023/05/16 01:45:03;;;;;;;11.15;3.00;;;9.00;99.90;;;;;;5098085;28;20378;-63
2023/05/16 01:47:31;;;;;;;16.58;2.80;;;9.00;99.90;;;;;;5087031;28;20044;-63
2023/05/16 01:50:12;;;;;;;16.67;2.72;;;8.90;99.90;;;;;;5083341;28;20050;-62
2023/05/16 01:52:40;;;;;;;18.38;3.13;;;8.90;99.90;;;;;;5088755;28;20085;-62
2023/05/16 01:55:11;;;;;;;16.00;2.67;;;8.90;99.90;;;;;;5101059;28;20421;-62
2023/05/16 01:57:37;;;;;;;14.75;2.53;;;8.90;99.90;;;;;;5092819;28;20047;-62
2023/05/16 02:00:04;;;;;;;14.65;2.42;;;8.90;99.90;;;;;;5074955;28;20035;-62
2023/05/16 02:02:30;;;;;;;16.95;2.95;;;8.90;99.90;;;;;;5072436;28;20035;-62
2023/05/16 02:04:56;;;;;;;8.93;2.60;;;8.90;99.90;;;;;;5072375;28;20205;-63
2023/05/16 02:07:22;;;;;;;12.32;2.45;;;8.90;99.90;;;;;;5092387;28;20726;-62
2023/05/16 02:09:47;;;;;;;12.60;2.85;;;8.90;99.90;;;;;;5098483;28;20058;-62
2023/05/16 02:12:13;;;;;;;17.38;2.63;;;8.80;99.90;;;;;;5074681;28;20036;-63
2023/05/16 02:14:38;;;;;;;15.55;2.63;;;8.80;99.90;;;;;;5093285;28;20039;-62
2023/05/16 02:17:04;;;;;;;9.75;2.25;;;8.80;99.90;;;;;;5094039;28;20115;-63
2023/05/16 02:19:30;;;;;;;12.40;2.60;;;8.80;99.90;;;;;;5091650;28;20036;-63
2023/05/16 02:21:56;;;;;;;14.88;2.38;;;8.70;99.90;;;;;;5101569;28;20395;-63
2023/05/16 02:24:21;;;;;;;10.73;2.22;;;8.70;99.90;;;;;;5104733;28;20032;-62
2023/05/16 02:26:47;;;;;;;14.45;2.67;;;8.70;99.90;;;;;;5095033;28;20070;-63
2023/05/16 02:29:13;;;;;;;10.95;2.00;;;8.70;99.90;;;;;;5096331;28;20039;-63
2023/05/16 02:31:41;;;;;;;9.82;2.47;;;8.60;99.90;;;;;;5092517;28;20048;-63
2023/05/16 02:34:07;;;;;;;17.75;2.53;;;8.60;99.90;;;;;;5092709;28;20496;-63
2023/05/16 02:36:34;;;;;;;14.07;3.03;;;8.60;99.90;;;;;;5092410;28;20047;-63
2023/05/16 02:39:00;;;;;;;17.27;2.42;;;8.60;99.90;;;;;;5092414;28;20067;-63
2023/05/16 02:41:26;;;;;;;9.90;2.35;;;8.60;99.90;;;;;;5074270;28;20053;-63
2023/05/16 02:43:52;;;;;;;12.38;2.30;;;8.60;99.90;;;;;;5091305;28;20044;-63
2023/05/16 02:46:22;;;;;;;12.88;2.75;;;8.60;99.90;;;;;;5094114;28;20043;-63
2023/05/16 02:48:48;;;;;;;8.73;2.55;;;8.60;99.90;;;;;;5099190;28;20085;-63
2023/05/16 02:51:14;;;;;;;9.05;2.20;;;8.60;99.90;;;;;;5094022;28;20465;-63
2023/05/16 02:53:39;;;;;;;11.98;2.55;;;8.60;99.90;;;;;;5092247;28;20064;-63
2023/05/16 02:56:05;;;;;;;10.90;2.65;;;8.60;99.90;;;;;;5097553;28;20401;-63
2023/05/16 02:58:32;;;;;;;12.68;2.30;;;8.50;99.90;;;;;;5109176;28;20107;-63
2023/05/16 03:00:57;;;;;;;14.52;2.10;;;8.60;99.90;;;;;;5109267;28;20039;-63
2023/05/16 03:03:23;;;;;;;9.85;2.17;;;8.60;99.90;;;;;;5089293;28;20093;-63
2023/05/16 03:05:49;;;;;;;9.85;1.92;;;8.60;99.90;;;;;;5099480;28;20064;-63
2023/05/16 03:08:14;;;;;;;16.92;2.60;;;8.60;99.90;;;;;;5094568;28;20036;-63
2023/05/16 03:10:40;;;;;;;16.88;2.83;;;8.60;99.90;;;;;;5061773;28;20047;-63
2023/05/16 03:13:05;;;;;;;12.02;2.45;;;8.60;99.90;;;;;;5093709;28;20458;-62
2023/05/16 03:15:31;;;;;;;19.30;2.80;;;8.60;99.90;;;;;;5073772;28;20039;-63
2023/05/16 03:17:57;;;;;;;14.00;2.58;;;8.60;99.90;;;;;;5072532;28;20063;-63
2023/05/16 03:20:22;;;;;;;10.25;1.95;;;8.60;99.90;;;;;;5077814;28;20123;-63
2023/05/16 03:22:48;;;;;;;10.88;2.45;;;8.50;99.90;;;;;;5091239;28;20048;-62
2023/05/16 03:25:13;;;;;;;16.92;2.42;;;8.50;99.90;;;;;;5091720;28;20043;-63
2023/05/16 03:27:39;;;;;;;13.55;2.38;;;8.50;99.90;;;;;;5091500;28;20040;-63
2023/05/16 03:30:06;;;;;;;8.00;1.90;;;8.50;99.90;;;;;;5095267;28;20118;-62
2023/05/16 03:32:32;;;;;;;7.35;2.03;;;8.60;99.90;;;;;;5078950;28;20040;-62
2023/05/16 03:34:58;;;;;;;13.27;2.35;;;8.60;99.90;;;;;;5095291;28;20031;-62
2023/05/16 03:37:23;;;;;;;11.55;2.00;;;8.60;99.90;;;;;;5076844;28;20036;-62
2023/05/16 03:39:49;;;;;;;12.07;2.40;;;8.50;99.90;;;;;;5099575;28;20043;-62
2023/05/16 03:42:17;;;;;;;9.05;2.15;;;8.60;99.90;;;;;;5097235;28;20032;-62
2023/05/16 03:44:43;;;;;;;8.95;2.25;;;8.60;99.90;;;;;;5101626;22;20048;-67
2023/05/16 03:47:08;;;;;;;11.52;2.40;;;8.60;99.90;;;;;;5062814;28;20043;-67
2023/05/16 03:49:35;;;;;;;13.98;2.55;;;8.60;99.90;;;;;;5065174;28;20040;-67
2023/05/16 03:52:02;;;;;;;8.85;2.33;;;8.60;99.90;;;;;;5067696;28;20036;-67
2023/05/16 03:54:27;;;;;;;11.88;2.42;;;8.60;99.90;;;;;;5069636;28;20029;-67
2023/05/16 03:56:53;;;;;;;13.27;2.58;;;8.50;99.90;;;;;;5071148;28;20105;-67
2023/05/16 03:59:18;;;;;;;9.15;2.05;;;8.60;99.90;;;;;;5071128;28;20036;-67
2023/05/16 04:01:44;;;;;;;11.43;2.45;;;8.60;99.90;;;;;;5061790;28;20033;-67
2023/05/16 04:04:09;;;;;;;15.98;2.55;;;8.50;99.90;;;;;;5066473;28;20041;-67
2023/05/16 04:06:35;;;;;;;8.32;2.30;;;8.50;99.90;;;;;;5069114;28;20036;-67
2023/05/16 04:09:01;;;;;;;9.68;1.95;;;8.50;99.90;;;;;;5070632;28;20128;-67
2023/05/16 04:11:26;;;;;;;9.20;2.60;;;8.40;99.90;;;;;;5067177;28;20076;-67
2023/05/16 04:13:52;;;;;;;13.90;2.35;;;8.40;99.90;;;;;;5069519;28;20394;-67
2023/05/16 04:16:18;;;;;;;12.68;2.50;;;8.40;99.90;;;;;;5063225;28;20044;-67
2023/05/16 04:18:45;;;;;;;14.55;2.70;;;8.40;99.90;;;;;;5087257;28;20356;-67
2023/05/16 04:21:13;;;;;;;16.27;2.83;;;8.40;99.90;;;;;;5070971;28;20065;-67
2023/05/16 04:23:40;;;;;;;9.93;2.35;;;8.40;99.90;;;;;;5048575;28;20106;-67
2023/05/16 04:26:05;;;;;;;13.52;2.50;;;8.30;99.90;;;;;;5069680;28;20071;-67
2023/05/16 04:28:31;;;;;;;11.15;2.38;;;8.30;99.90;;;;;;5064514;28;20816;-67
2023/05/16 04:30:56;;;;;;;13.80;2.45;;;8.30;99.90;;;;;;5069947;28;20044;-67
2023/05/16 04:33:22;;;;;;;11.32;2.50;;;8.30;99.90;;;;;;5048196;28;20442;-67
2023/05/16 04:35:48;;;;;;;8.63;2.15;;;8.30;99.90;;;;;;5066704;28;20138;-67
2023/05/16 04:38:14;;;;;;;11.77;2.53;;;8.40;99.90;;;;;;5053538;28;20052;-67
2023/05/16 04:40:43;;;;;;;10.05;2.05;;;8.30;99.90;;;;;;5065488;28;20036;-67
2023/05/16 04:43:08;;;;;;;10.30;2.22;;;8.40;99.90;;;;;;5074530;28;20033;-67
2023/05/16 04:45:34;;;;;;;8.95;1.95;;;8.40;99.90;;;;;;5066667;28;20041;-67
2023/05/16 04:48:00;;;;;;;10.02;2.53;;;8.40;99.90;;;;;;5067683;28;20119;-67
2023/05/16 04:50:26;;;;;;;12.60;2.53;;;8.40;99.90;;;;;;5073477;28;20119;-67
2023/05/16 04:52:51;;;;;;;20.95;2.83;;;8.40;99.90;;;;;;5073748;28;20594;-67
2023/05/16 04:55:17;;;;;;;11.07;2.55;;;8.50;99.90;;;;;;5068504;28;20055;-67
2023/05/16 04:57:43;;;;;;;16.73;2.90;;;8.50;99.90;;;;;;5071880;28;20098;-67
2023/05/16 05:00:10;;;;;;;9.85;2.70;;;8.60;99.90;;;;;;5068945;28;20039;-67
2023/05/16 05:02:37;;;;;;;12.75;3.08;;;8.70;99.90;;;;;;5068689;28;20043;-67
2023/05/16 05:05:04;;;;;;;11.07;2.47;;;8.70;99.90;;;;;;5071098;28;20090;-67
2023/05/16 05:07:30;;;;;;;11.32;2.70;;;8.80;99.90;;;;;;5064849;28;20438;-67
2023/05/16 05:09:55;;;;;;;11.73;2.50;;;8.80;99.90;;;;;;5064144;28;20037;-67
2023/05/16 05:12:21;;;;;;;9.63;2.28;;;8.90;99.90;;;;;;5068708;28;20032;-67
2023/05/16 05:14:47;;;;;;;9.73;2.33;;;8.90;99.90;;;;;;5069134;28;20151;-67
2023/05/16 05:17:12;;;;;;;10.45;1.73;;;9.00;99.90;;;;;;5069579;28;20112;-67
2023/05/16 05:19:38;;;;;;;9.45;2.05;;;9.10;99.90;;;;;;5072497;28;20040;-67
2023/05/16 05:22:04;;;;;;;9.63;2.40;;;9.10;99.90;;;;;;5073523;28;20059;-67
2023/05/16 05:24:29;;;;;;;7.20;2.17;;;9.20;99.90;;;;;;5072577;28;20039;-67
2023/05/16 05:26:55;;;;;;;12.35;2.05;;;9.20;99.90;;;;;;5070317;28;20407;-67
2023/05/16 05:29:21;;;;;;;10.43;2.17;;;9.20;99.90;;;;;;5066061;28;20040;-67
2023/05/16 05:31:47;;;;;;;13.98;2.42;;;9.20;99.90;;;;;;5068408;28;20044;-67
2023/05/16 05:34:12;;;;;;;17.05;2.63;;;9.30;99.90;;;;;;5072997;28;20460;-67
2023/05/16 05:36:38;;;;;;;22.90;2.95;;;9.30;99.90;;;;;;5073241;28;20485;-67
2023/05/16 05:39:03;;;;;;;8.00;2.28;;;9.40;99.90;;;;;;5073068;28;20033;-67
2023/05/16 05:41:29;;;;;;;10.73;2.15;;;9.50;99.90;;;;;;5072324;28;20090;-67
2023/05/16 05:43:55;;;;;;;14.80;2.72;;;9.50;99.90;;;;;;5073755;28;20066;-67
2023/05/16 05:46:20;;;;;;;12.63;2.25;;;9.60;99.90;;;;;;5072867;28;20095;-67
2023/05/16 05:48:46;;;;;;;12.05;2.20;;;9.70;99.90;;;;;;5057327;28;20048;-67
2023/05/16 05:51:13;;;;;;;17.60;3.13;;;9.70;99.90;;;;;;5062942;28;20127;-66
2023/05/16 05:53:39;;;;;;;14.85;2.60;;;9.70;99.90;;;;;;5037624;28;20087;-67
2023/05/16 05:56:05;;;;;;;12.95;2.13;;;9.80;99.90;;;;;;5062065;28;20032;-67
2023/05/16 05:58:31;;;;;;;13.23;2.35;;;9.80;99.90;;;;;;5064850;28;20028;-67
2023/05/16 06:00:56;;;;;;;11.10;2.25;;;9.90;99.90;;;;;;5069924;28;20055;-67
2023/05/16 06:03:22;;;;;;;11.52;2.38;;;9.90;99.90;;;;;;5064607;28;20130;-67
2023/05/16 06:05:48;;;;;;;13.45;2.03;;;10.00;99.90;;;;;;5063535;28;20033;-67
2023/05/16 06:08:13;;;;;;;128.25;13.35;;;10.00;99.90;;;;;;5070666;28;20033;-67
2023/05/16 06:10:39;;;;;;;11.20;2.50;;;10.10;99.90;;;;;;5071031;28;20115;-67
2023/05/16 06:13:05;;;;;;;12.02;3.13;;;10.20;99.90;;;;;;5071122;28;20452;-67
2023/05/16 06:15:30;;;;;;;10.98;1.90;;;10.30;99.90;;;;;;5070960;28;20036;-67
2023/05/16 06:17:56;;;;;;;11.23;2.05;;;10.40;99.90;;;;;;5069750;28;20036;-67
2023/05/16 06:20:22;;;;;;;16.45;2.47;;;10.50;99.90;;;;;;5066289;28;20048;-67
2023/05/16 06:22:48;;;;;;;10.10;2.20;;;10.60;99.90;;;;;;5071157;28;20059;-68
2023/05/16 06:25:13;;;;;;;12.85;1.75;;;10.70;99.90;;;;;;5070558;28;20111;-66
2023/05/16 06:27:39;;;;;;;7.97;2.17;;;10.80;99.90;;;;;;5068477;28;20497;-66
2023/05/16 06:30:05;;;;;;;11.52;2.03;;;11.00;99.90;;;;;;5069527;28;20046;-67
2023/05/16 06:32:31;;;;;;;10.88;2.22;;;11.10;99.90;;;;;;5046811;28;20086;-66
2023/05/16 06:34:57;;;;;;;8.82;2.13;;;11.20;99.90;;;;;;5063037;28;20037;-67
2023/05/16 06:37:22;;;;;;;10.93;1.90;;;11.30;99.90;;;;;;5052039;28;20095;-67
2023/05/16 06:39:48;;;;;;;10.55;1.73;;;11.40;99.90;;;;;;5069874;28;20442;-67
2023/05/16 06:42:14;;;;;;;11.50;1.90;;;11.50;99.90;;;;;;5071897;28;20448;-67
2023/05/16 06:44:40;;;;;;;9.98;1.90;;;11.50;99.90;;;;;;5071710;28;20428;-66
2023/05/16 06:47:05;;;;;;;10.02;1.67;;;11.60;99.90;;;;;;5071907;28;20493;-66
2023/05/16 06:49:32;;;;;;;12.45;1.70;;;11.60;99.90;;;;;;5071774;28;20036;-67
2023/05/16 06:51:57;;;;;;;9.13;1.65;;;11.70;99.90;;;;;;5071130;28;20454;-66
2023/05/16 06:54:23;;;;;;;10.05;1.98;;;11.80;99.90;;;;;;5064631;28;20144;-66
2023/05/16 06:56:48;;;;;;;8.15;1.83;;;11.90;99.90;;;;;;5068889;28;20039;-67
2023/05/16 06:59:14;;;;;;;9.07;1.88;;;12.00;99.90;;;;;;5071031;28;20071;-66
2023/05/16 07:01:40;;;;;;;12.25;1.90;;;12.10;99.90;;;;;;5067474;28;20418;-66
2023/05/16 07:04:06;;;;;;;7.57;1.90;;;12.00;99.90;;;;;;5067915;28;20036;-66
2023/05/16 07:06:31;;;;;;;8.30;2.00;;;12.00;99.90;;;;;;5064628;28;20089;-66
2023/05/16 07:08:57;;;;;;;7.50;1.50;;;12.10;99.90;;;;;;5067383;28;20117;-66
2023/05/16 07:11:23;;;;;;;7.65;1.38;;;12.00;99.90;;;;;;5066861;28;20380;-68
2023/05/16 07:13:48;;;;;;;7.90;1.88;;;11.90;99.90;;;;;;5066268;28;20039;-66
2023/05/16 07:16:14;;;;;;;13.55;1.90;;;11.90;99.90;;;;;;5071364;28;20110;-66
2023/05/16 07:18:40;;;;;;;4.32;1.20;;;11.90;99.90;;;;;;5071897;28;20083;-66
2023/05/16 07:21:05;;;;;;;7.72;1.13;;;11.70;99.90;;;;;;5069875;28;20082;-66
2023/05/16 07:23:31;;;;;;;3.95;0.82;;;11.60;99.90;;;;;;5071693;28;20402;-66
2023/05/16 07:25:57;;;;;;;3.85;0.80;;;11.30;99.90;;;;;;5072726;28;20051;-66
2023/05/16 07:28:22;;;;;;;3.60;0.75;;;11.20;99.90;;;;;;5063025;28;20051;-66
2023/05/16 07:30:48;;;;;;;4.63;1.00;;;11.20;99.90;;;;;;5068312;28;20032;-66
2023/05/16 07:33:14;;;;;;;4.85;0.85;;;11.30;99.90;;;;;;5068342;28;20498;-66
2023/05/16 07:35:39;;;;;;;4.15;0.82;;;11.40;99.90;;;;;;5070609;28;20088;-66
2023/05/16 07:38:05;;;;;;;6.00;0.95;;;11.40;99.90;;;;;;5068792;28;20622;-66
2023/05/16 07:40:31;;;;;;;4.25;0.90;;;11.60;99.90;;;;;;5069877;28;20036;-66
2023/05/16 07:42:57;;;;;;;4.78;0.80;;;11.80;99.90;;;;;;5070001;28;20067;-67
2023/05/16 07:45:22;;;;;;;6.03;1.30;;;12.00;99.90;;;;;;5069688;28;20074;-66
2023/05/16 07:47:48;;;;;;;5.28;1.13;;;12.20;99.90;;;;;;5070736;28;20402;-66
2023/05/16 07:50:14;;;;;;;6.75;1.20;;;12.30;99.90;;;;;;5071194;28;20097;-66
2023/05/16 07:52:39;;;;;;;5.18;1.05;;;12.50;99.90;;;;;;5070947;28;20421;-66
2023/05/16 07:55:06;;;;;;;4.55;0.80;;;12.70;99.90;;;;;;5067235;28;20273;-66
2023/05/16 07:57:31;;;;;;;8.35;1.38;;;12.80;99.90;;;;;;5065877;28;20490;-66
2023/05/16 07:59:57;;;;;;;8.00;1.05;;;13.00;99.90;;;;;;5064401;28;20091;-66
2023/05/16 08:02:29;;;;;;;7.78;1.40;;;13.10;99.90;;;;;;5066914;28;20405;-66
2023/05/16 08:04:56;;;;;;;5.75;1.05;;;13.10;99.90;;;;;;5065603;28;20043;-66
2023/05/16 08:07:22;;;;;;;3.50;1.10;;;13.20;99.90;;;;;;5065708;28;20049;-66
2023/05/16 08:09:48;;;;;;;4.55;0.98;;;13.40;99.90;;;;;;5066908;28;20048;-66
2023/05/16 08:12:13;;;;;;;7.45;1.20;;;13.60;99.90;;;;;;5065850;28;20027;-66
2023/05/16 08:14:39;;;;;;;5.45;1.10;;;13.50;99.90;;;;;;5068863;28;20075;-66
2023/05/16 08:17:05;;;;;;;5.15;1.25;;;13.40;99.90;;;;;;5073932;28;20428;-66
2023/05/16 08:19:31;;;;;;;6.40;1.38;;;13.30;99.90;;;;;;5056456;28;20052;-66
2023/05/16 08:21:57;;;;;;;6.82;1.10;;;13.30;99.90;;;;;;5072586;28;20033;-66
2023/05/16 08:24:23;;;;;;;8.15;1.10;;;13.40;99.90;;;;;;5070369;28;20509;-66
2023/05/16 08:26:49;;;;;;;4.20;0.80;;;13.60;99.90;;;;;;5074191;28;20036;-66
2023/05/16 08:29:15;;;;;;;6.43;1.15;;;13.70;99.90;;;;;;5060453;28;20036;-66
2023/05/16 08:31:40;;;;;;;4.55;1.20;;;13.90;99.90;;;;;;5071938;28;20133;-66
2023/05/16 08:34:08;;;;;;;8.23;1.33;;;14.00;99.90;;;;;;5064015;28;20510;-66
2023/05/16 08:36:34;;;;;;;7.40;1.52;;;14.20;99.90;;;;;;5072731;28;20051;-66
2023/05/16 08:39:00;;;;;;;5.45;1.27;;;14.20;99.90;;;;;;5074511;28;20048;-66
2023/05/16 08:41:25;;;;;;;8.07;1.38;;;14.00;99.90;;;;;;5067816;28;20402;-66
2023/05/16 08:43:51;;;;;;;7.75;1.48;;;14.10;99.90;;;;;;5070221;28;20044;-66
2023/05/16 08:46:22;;;;;;;5.93;1.30;;;14.10;99.90;;;;;;5069203;28;20108;-66
2023/05/16 08:48:52;;;;;;;6.65;1.38;;;13.90;99.90;;;;;;5070867;28;20079;-66
2023/05/16 08:51:19;;;;;;;5.88;1.20;;;13.90;99.90;;;;;;5071752;28;20123;-66
2023/05/16 08:53:53;;;;;;;4.97;1.20;;;13.80;99.90;;;;;;5073242;28;20040;-66
2023/05/16 08:56:21;;;;;;;6.22;1.17;;;13.60;99.90;;;;;;5070336;28;20037;-66
2023/05/16 08:58:47;;;;;;;4.40;1.10;;;13.50;99.90;;;;;;5065113;28;20032;-66
2023/05/16 09:01:13;;;;;;;5.85;1.27;;;13.60;99.90;;;;;;5070163;28;20033;-67
2023/05/16 09:03:39;;;;;;;7.05;1.40;;;13.80;99.90;;;;;;5070832;28;20120;-66
2023/05/16 09:06:05;;;;;;;6.72;1.50;;;14.00;99.90;;;;;;5070601;28;20406;-66
2023/05/16 09:08:31;;;;;;;7.18;1.58;;;14.30;99.90;;;;;;5068568;28;20043;-66
2023/05/16 09:10:57;;;;;;;7.35;1.60;;;14.50;99.90;;;;;;5070248;28;20526;-66
2023/05/16 09:13:23;;;;;;;7.15;1.35;;;14.70;99.90;;;;;;5069583;28;20040;-66
2023/05/16 09:16:08;;;;;;;5.68;1.55;;;14.80;99.90;;;;;;5067044;28;20072;-66
2023/05/16 09:18:35;;;;;;;8.93;2.13;;;14.60;99.90;;;;;;5068218;28;20055;-66
2023/05/16 09:21:01;;;;;;;5.82;1.20;;;14.50;99.90;;;;;;5066894;28;20059;-66
2023/05/16 09:23:36;;;;;;;6.55;1.10;;;14.50;99.90;;;;;;5069339;28;20051;-66
2023/05/16 09:26:04;;;;;;;5.15;0.95;;;14.50;99.70;;;;;;5070494;28;20036;-66
2023/05/16 09:28:30;;;;;;;4.28;1.10;;;14.40;99.40;;;;;;5070021;28;20101;-67
2023/05/16 09:30:58;;;;;;;5.53;1.38;;;14.20;99.60;;;;;;5066171;28;20040;-66
2023/05/16 09:33:27;;;;;;;3.42;1.08;;;14.30;99.40;;;;;;5059611;28;20037;-67
2023/05/16 09:36:00;;;;;;;4.38;1.20;;;14.50;98.70;;;;;;5070234;28;20498;-67
2023/05/16 09:38:27;;;;;;;5.80;1.20;;;14.70;97.90;;;;;;5070742;28;20035;-68
2023/05/16 09:40:56;;;;;;;4.35;1.10;;;14.80;98.30;;;;;;5074687;28;20054;-68
2023/05/16 09:43:25;;;;;;;6.13;0.90;;;15.00;97.70;;;;;;5072110;28;20040;-67
2023/05/16 09:45:52;;;;;;;5.00;1.40;;;14.90;96.50;;;;;;5087705;22;20054;-62
2023/05/16 09:48:19;;;;;;;5.38;1.00;;;14.80;96.60;;;;;;5069641;28;20510;-63
2023/05/16 09:50:51;;;;;;;5.85;0.95;;;14.80;97.50;;;;;;5054619;28;20086;-62
2023/05/16 09:53:25;;;;;;;5.93;1.67;;;15.00;96.40;;;;;;5046136;28;20502;-62
2023/05/16 09:56:18;;;;;;;6.28;1.63;;;15.10;93.50;;;;;;5051742;28;20032;-63
2023/05/16 09:58:46;;;;;;;10.15;1.35;;;15.10;94.90;;;;;;5073833;28;20047;-63
2023/05/16 10:01:12;;;;;;;8.05;1.27;;;15.20;96.10;;;;;;5051938;28;20561;-62
2023/05/16 10:03:39;;;;;;;6.25;1.48;;;15.30;95.60;;;;;;5057573;28;20076;-62
2023/05/16 10:06:06;;;;;;;5.03;1.15;;;15.30;94.90;;;;;;5053491;28;20048;-62
2023/05/16 10:08:36;;;;;;;5.20;1.00;;;15.40;93.60;;;;;;5050838;28;20127;-62
2023/05/16 10:11:03;;;;;;;6.50;1.30;;;15.30;93.20;;;;;;5052680;28;20053;-62
2023/05/16 10:13:31;;;;;;;6.88;1.10;;;15.20;91.80;;;;;;5054676;28;20406;-63
2023/05/16 10:15:58;;;;;;;6.82;1.48;;;15.00;93.30;;;;;;5062287;28;20029;-62
2023/05/16 10:18:31;;;;;;;6.18;1.27;;;14.80;94.00;;;;;;5063227;28;20035;-62
2023/05/16 10:21:12;;;;;;;8.45;1.20;;;14.70;93.70;;;;;;5052500;28;20638;-62
2023/05/16 10:23:40;;;;;;;;;;;14.50;94.30;;;;;;5060817;28;20028;-62
2023/05/16 10:26:07;;;;;;;8.75;1.17;;;14.50;95.80;;;;;;5063669;28;20382;-63
2023/05/16 10:28:35;;;;;;;8.38;1.27;;;14.70;95.90;;;;;;5067181;28;20522;-63
2023/05/16 10:31:01;;;;;;;5.28;1.17;;;14.80;95.20;;;;;;5071320;28;20037;-63
2023/05/16 10:33:27;;;;;;;4.45;0.90;;;14.70;94.70;;;;;;5054016;28;20048;-63
2023/05/16 10:35:54;;;;;;;7.15;1.38;;;14.50;94.60;;;;;;5052052;28;20036;-63
2023/05/16 10:38:22;;;;;;;5.72;1.20;;;14.40;95.00;;;;;;5046308;28;20040;-63
2023/05/16 10:40:49;;;;;;;6.43;0.98;;;14.40;93.80;;;;;;5070718;28;20056;-63
2023/05/16 10:43:29;;;;;;;5.10;1.20;;;14.50;93.20;;;;;;5061757;28;20394;-63
2023/05/16 10:46:22;;;;;;;5.47;1.33;;;14.70;91.40;;;;;;5064418;28;20036;-63
2023/05/16 10:48:47;;;;;;;3.35;0.90;;;14.80;89.60;;;;;;5066115;28;20044;-63
2023/05/16 10:51:37;;;;;;;5.63;1.20;;;14.90;89.80;;;;;;5058716;28;20094;-63
2023/05/16 10:54:11;;;;;;;4.25;1.10;;;15.20;88.90;;;;;;5060923;28;20055;-63
2023/05/16 10:56:37;;;;;;;4.88;1.33;;;15.40;87.40;;;;;;5046970;28;20060;-62
2023/05/16 10:59:03;;;;;;;6.32;0.98;;;15.60;88.60;;;;;;5071486;28;20037;-62
2023/05/16 11:01:32;;;;;;;9.27;1.33;;;15.60;86.40;;;;;;5069853;28;20434;-62
2023/05/16 11:04:01;;;;;;;4.65;1.10;;;15.50;84.40;;;;;;5071017;28;20037;-62
2023/05/16 11:06:28;;;;;;;6.80;1.35;;;15.30;85.80;;;;;;5070306;28;20036;-63
2023/05/16 11:09:10;;;;;;;6.07;1.20;;;15.20;86.90;;;;;;5062536;28;20043;-63
2023/05/16 11:11:51;;;;;;;5.70;1.38;;;15.00;85.10;;;;;;5067995;28;20040;-63
2023/05/16 11:14:31;;;;;;;4.68;0.98;;;14.80;85.30;;;;;;5063224;28;20093;-62
2023/05/16 11:17:11;;;;;;;6.18;1.25;;;14.90;86.70;;;;;;5063010;28;20115;-63
2023/05/16 11:19:49;;;;;;;5.35;1.15;;;14.80;87.40;;;;;;5070464;28;20493;-62
2023/05/16 11:22:18;;;;;;;4.47;1.13;;;15.00;90.20;;;;;;5056642;28;20032;-63
2023/05/16 11:25:00;;;;;;;6.03;1.20;;;15.30;90.40;;;;;;5037274;28;20110;-63
2023/05/16 11:27:27;;;;;;;4.07;0.95;;;15.40;89.40;;;;;;5068186;28;20098;-62
2023/05/16 11:29:57;;;;;;;6.05;1.15;;;15.30;85.60;;;;;;5053307;28;20036;-62
2023/05/16 11:32:22;;;;;;;7.40;1.13;;;15.30;85.00;;;;;;5046992;28;20521;-62
2023/05/16 11:34:50;;;;;;;6.03;1.15;;;15.40;86.60;;;;;;5068402;28;20028;-63
2023/05/16 11:37:17;;;;;;;5.65;1.15;;;15.50;86.80;;;;;;5037155;28;20044;-62
2023/05/16 11:39:43;;;;;;;5.03;1.08;;;15.60;85.80;;;;;;5057951;28;20036;-63
2023/05/16 11:42:08;;;;;;;7.15;1.25;;;15.60;84.90;;;;;;5059387;28;20394;-62
2023/05/16 11:44:34;;;;;;;4.70;1.00;;;15.70;86.60;;;;;;5070443;28;20490;-63
2023/05/16 11:47:03;;;;;;;8.30;1.30;;;15.80;85.60;;;;;;5051828;28;20051;-62
2023/05/16 11:49:29;;;;;;;6.30;1.17;;;15.80;88.00;;;;;;5068618;28;20052;-62
2023/05/16 11:51:56;;;;;;;3.30;1.40;;;16.00;88.30;;;;;;5072187;28;20070;-62
2023/05/16 11:54:23;;;;;;;5.90;1.20;;;15.90;86.40;;;;;;5064660;28;20645;-63
2023/05/16 11:56:52;;;;;;;7.63;1.33;;;15.60;85.20;;;;;;5051226;28;20044;-62
2023/05/16 11:59:18;;;;;;;5.00;1.40;;;15.60;86.70;;;;;;5057071;28;20558;-62
2023/05/16 12:01:43;;;;;;;7.03;1.42;;;15.40;86.30;;;;;;5073478;28;20119;-62
2023/05/16 12:04:11;;;;;;;5.28;1.48;;;15.50;88.10;;;;;;5065819;28;20414;-62
2023/05/16 12:06:37;;;;;;;7.60;1.80;;;15.70;85.30;;;;;;5073581;28;20040;-62
2023/05/16 12:09:09;;;;;;;6.05;1.27;;;15.80;85.70;;;;;;5065566;28;20538;-62
2023/05/16 12:11:38;;;;;;;5.07;1.25;;;15.80;84.10;;;;;;5055733;28;20567;-62
2023/05/16 12:14:08;;;;;;;5.15;1.92;;;15.50;84.40;;;;;;5071288;28;20486;-63
2023/05/16 12:16:38;;;;;;;6.32;1.48;;;15.30;85.80;;;;;;5049140;28;20056;-63
2023/05/16 12:19:07;;;;;;;7.70;1.60;;;15.00;85.40;;;;;;5072200;28;20498;-63
2023/05/16 12:21:33;;;;;;;6.75;1.60;;;14.70;83.80;;;;;;5064267;28;20119;-63
2023/05/16 12:23:59;;;;;;;9.85;1.55;;;14.60;86.00;;;;;;5063558;28;20045;-63
2023/05/16 12:26:30;;;;;;;7.13;1.60;;;14.40;86.60;;;;;;5056223;28;20048;-63
2023/05/16 12:29:02;;;;;;;;;;;14.20;90.80;;;;;;5075432;28;20075;-62
2023/05/16 12:31:31;;;;;;;4.57;1.30;;;13.90;95.10;;;;;;5055696;28;20366;-62
2023/05/16 12:33:57;;;;;;;7.28;2.08;;;13.70;95.50;;;;;;5063730;28;20032;-62
2023/05/16 12:36:25;;;;;;;6.18;1.70;;;13.70;97.30;;;;;;5074486;28;20733;-62
2023/05/16 12:38:51;;;;;;;5.53;1.63;;;13.70;98.40;;;;;;5073152;28;20041;-62
2023/05/16 12:41:21;;;;;;;6.55;1.67;;;13.90;99.40;;;;;;5073437;28;20044;-62
2023/05/16 12:43:47;;;;;;;8.70;2.08;;;14.30;99.90;;;;;;5055632;28;20094;-62
2023/05/16 12:46:13;;;;;;;4.88;1.33;;;14.70;99.90;;;;;;5047408;28;20079;-62
2023/05/16 12:48:41;;;;;;;7.07;1.77;;;14.90;99.50;;;;;;5073761;28;20469;-62